TJSJ/SJU METAR and TAF weather

Enter ICAO airport designator
Station Type Date Time Source
TJSJ METAR 2023/02/04 02:56 UTC NOAA

TJSJ 040256Z 18003KT 10SM FEW032 FEW080 24/21 A3013 RMK AO2 SLP201 P0003 60003 T02440206 50006


Station Type Date Time Source
TJSJ Decoded METAR 2023/02/04 02:56 UTC NOAA

San Juan, Luis Munoz Marin International Airport, PR, United States (TJSJ) 18-27N 066-00W
Feb 03, 2023 - 09:56 PM EST / 2023.02.04 0256 UTC
Wind: from the S (180 degrees) at 3 MPH (3 KT):0
Visibility: 10 mile(s):0
Sky conditions: mostly clear
Precipitation last hour: 0.03 inches
Temperature: 75.9 F (24.4 C)
Dew Point: 69.1 F (20.6 C)
Relative Humidity: 79%
Pressure (altimeter): 30.13 in. Hg (1020 hPa)
Pressure tendency: 0.02 inches (0.6 hPa) higher than three hours ago
ob: TJSJ 040256Z 18003KT 10SM FEW032 FEW080 24/21 A3013 RMK AO2 SLP201 P0003 60003 T02440206 50006
cycle: 3

Station Type Date Time Source
TJSJ TAF 2023/02/03 18:24 UTC NOAA

TAF TJSJ 031720Z 0318/0418 07017KT P6SM SCT030 SCT060
FM032200 VRB05KT P6SM VCSH SCT025 SCT060
FM041200 11008KT P6SM VCSH SCT025
FM041400 07016KT P6SM VCSH FEW030 SCT050

Example: see airport list